Murrayville, Georgia
Current Conditions -  °F | °C
As of 8:53 PM on Wednesday 26 Nov 2014 (Local Time) from KGVL Reporting Station
Broken Clouds Broken Clouds  
Wind Chill: 42°   Ceiling: 9000
Heat Index: 45°   Visibility: 10mi
Dew Point: 26°   Wind: 6mph
Humidity: 48%   Direction: 220°SW
Pressure: 30.07"   Gusts: NA
Location:  34.42°N, 83.91°W
Report Text: KGVL 270153Z AUTO 22005KT 10SM BKN090 07/M03 A3007 RMK AO2 SLP182 T00721033
Loading
Personal Weather Stations






























Interactive Weather Map New forecast layout! Learn more

10-Day Weather Forecast

Advertisements
Track Severe Weather on mobile